Time;durP1;ratioP1;P1;durP2;ratioP2;P2;SDS_P1;SDS_P2;PMS_P1;PMS_P2;Temp;Humidity;BMP_temperature;BMP_pressure;BME280_temperature;BME280_humidity;BME280_pressure;Samples;Min_cycle;Max_cycle;Signal;HPM_P1;HPM_P2
2021/04/30 00:00:40;;;;;;;9.33;8.20;;;8.10;99.90;;;;;;5111088;28;20221;-58
2021/04/30 00:03:07;;;;;;;9.43;8.53;;;8.10;99.90;;;;;;5112519;28;20205;-60
2021/04/30 00:05:34;;;;;;;9.77;8.83;;;8.00;99.90;;;;;;5112182;28;20675;-59
2021/04/30 00:08:02;;;;;;;9.70;8.80;;;8.10;99.90;;;;;;5112674;28;20294;-60
2021/04/30 00:10:29;;;;;;;11.00;8.70;;;8.00;99.90;;;;;;5112470;28;20279;-60
2021/04/30 00:12:56;;;;;;;9.93;9.03;;;8.10;99.90;;;;;;5112665;28;20200;-59
2021/04/30 00:15:23;;;;;;;9.80;8.73;;;8.10;99.90;;;;;;5112199;28;20714;-59
2021/04/30 00:17:50;;;;;;;9.90;8.90;;;8.10;99.90;;;;;;5112260;28;20211;-59
2021/04/30 00:20:17;;;;;;;11.13;9.83;;;8.00;99.90;;;;;;5112352;28;20300;-59
2021/04/30 00:22:44;;;;;;;10.80;9.57;;;8.00;99.90;;;;;;5112941;28;20202;-59
2021/04/30 00:25:12;;;;;;;11.27;9.83;;;7.90;99.90;;;;;;5116450;28;20264;-59
2021/04/30 00:27:39;;;;;;;9.30;8.37;;;7.80;99.90;;;;;;5117023;28;20202;-60
2021/04/30 00:30:08;;;;;;;10.33;9.17;;;7.90;99.90;;;;;;5116403;28;20286;-59
2021/04/30 00:32:35;;;;;;;9.63;8.63;;;7.90;99.90;;;;;;5102853;27;20742;-57
2021/04/30 00:35:05;;;;;;;10.23;9.23;;;7.90;99.90;;;;;;5095598;28;20248;-59
2021/04/30 00:37:32;;;;;;;10.97;9.53;;;8.00;99.90;;;;;;5095294;28;20298;-59
2021/04/30 00:39:58;;;;;;;9.87;8.87;;;8.00;99.90;;;;;;5113983;28;20651;-57
2021/04/30 00:42:26;;;;;;;10.50;9.40;;;7.80;99.90;;;;;;5116074;28;20199;-58
2021/04/30 00:44:53;;;;;;;10.50;9.33;;;7.90;99.90;;;;;;5115630;28;20199;-58
2021/04/30 00:47:28;;;;;;;10.33;9.33;;;7.80;99.90;;;;;;5115933;28;20566;-58
2021/04/30 00:49:55;;;;;;;11.03;9.87;;;7.80;99.90;;;;;;5115787;28;20191;-59
2021/04/30 00:52:22;;;;;;;10.57;9.20;;;7.70;99.90;;;;;;5115948;28;20289;-57
2021/04/30 00:54:49;;;;;;;10.30;9.20;;;7.70;99.90;;;;;;5115402;28;20672;-55
2021/04/30 00:57:16;;;;;;;10.27;9.27;;;7.80;99.90;;;;;;5115797;28;20209;-56
2021/04/30 00:59:43;;;;;;;12.43;9.77;;;7.70;99.90;;;;;;5115222;28;20204;-58
2021/04/30 01:02:13;;;;;;;11.73;8.73;;;7.80;99.90;;;;;;5115294;28;20253;-57
2021/04/30 01:04:41;;;;;;;10.77;9.23;;;7.70;99.90;;;;;;5115701;28;20232;-57
2021/04/30 01:07:07;;;;;;;10.63;9.20;;;7.70;99.90;;;;;;5115339;28;20230;-56
2021/04/30 01:09:34;;;;;;;10.47;9.37;;;7.70;99.90;;;;;;5115443;28;20263;-57
2021/04/30 01:12:01;;;;;;;10.47;8.90;;;7.70;99.90;;;;;;5115400;28;20203;-58
2021/04/30 01:14:29;;;;;;;12.30;9.60;;;7.60;99.90;;;;;;5115195;28;20659;-58
2021/04/30 01:16:57;;;;;;;11.53;9.50;;;7.60;99.90;;;;;;5115377;28;20179;-58
2021/04/30 01:19:25;;;;;;;9.90;8.90;;;7.60;99.90;;;;;;5115347;28;20227;-57
2021/04/30 01:21:54;;;;;;;12.57;9.47;;;7.60;99.90;;;;;;5114960;28;20221;-59
2021/04/30 01:24:21;;;;;;;9.97;8.97;;;7.60;99.90;;;;;;5115226;28;20245;-56
2021/04/30 01:26:48;;;;;;;9.70;8.80;;;7.50;99.90;;;;;;5115167;28;20573;-57
2021/04/30 01:29:15;;;;;;;10.53;9.43;;;7.40;99.90;;;;;;5114813;28;20712;-58
2021/04/30 01:31:43;;;;;;;11.33;8.83;;;7.40;99.90;;;;;;5109240;28;20286;-58
2021/04/30 01:34:10;;;;;;;10.27;9.20;;;7.50;99.90;;;;;;5094602;28;20607;-58
2021/04/30 01:36:38;;;;;;;10.87;9.37;;;7.50;99.90;;;;;;5094313;28;20297;-59
2021/04/30 01:39:08;;;;;;;11.20;9.00;;;7.50;99.90;;;;;;5094251;28;20210;-56
2021/04/30 01:41:36;;;;;;;10.50;9.50;;;7.50;99.90;;;;;;5094464;28;20408;-58
2021/04/30 01:44:06;;;;;;;10.33;8.70;;;7.50;99.90;;;;;;5094414;28;20202;-58
2021/04/30 01:46:33;;;;;;;10.60;9.50;;;7.40;99.90;;;;;;5094517;28;20214;-57
2021/04/30 01:49:00;;;;;;;11.80;9.10;;;7.40;99.90;;;;;;5094135;28;20204;-57
2021/04/30 01:51:27;;;;;;;10.77;9.60;;;7.40;99.90;;;;;;5094177;28;20298;-57
2021/04/30 01:53:54;;;;;;;12.33;10.07;;;7.40;99.90;;;;;;5094174;28;20209;-58
2021/04/30 01:56:22;;;;;;;11.43;9.37;;;7.50;99.90;;;;;;5093872;28;20703;-56
2021/04/30 01:58:49;;;;;;;10.80;9.70;;;7.40;99.90;;;;;;5094153;28;20203;-58
2021/04/30 02:01:16;;;;;;;11.37;9.80;;;7.40;99.90;;;;;;5093693;28;20223;-58
2021/04/30 02:03:43;;;;;;;11.37;9.70;;;7.40;99.90;;;;;;5093352;28;20298;-55
2021/04/30 02:06:10;;;;;;;10.60;9.50;;;7.30;99.90;;;;;;5093541;28;20203;-56
2021/04/30 02:08:37;;;;;;;12.10;9.70;;;7.40;99.90;;;;;;5093601;28;20207;-59
2021/04/30 02:11:04;;;;;;;10.37;9.30;;;7.40;99.90;;;;;;5093767;28;20199;-55
2021/04/30 02:13:32;;;;;;;11.63;10.17;;;7.50;99.90;;;;;;5093794;28;20199;-56
2021/04/30 02:15:59;;;;;;;9.80;8.80;;;7.40;99.90;;;;;;5093457;28;20226;-59
2021/04/30 02:18:26;;;;;;;11.43;9.73;;;7.30;99.90;;;;;;5093617;28;20209;-58
2021/04/30 02:20:53;;;;;;;12.77;10.03;;;7.20;99.90;;;;;;5093226;28;20220;-57
2021/04/30 02:23:20;;;;;;;11.97;10.73;;;7.20;99.90;;;;;;5093382;28;20693;-56
2021/04/30 02:25:47;;;;;;;13.60;11.10;;;7.20;99.90;;;;;;5093557;28;20217;-58
2021/04/30 02:28:14;;;;;;;11.00;9.90;;;7.20;99.90;;;;;;5093602;28;20301;-57
2021/04/30 02:30:42;;;;;;;11.43;9.87;;;7.20;99.90;;;;;;5093049;28;20209;-57
2021/04/30 02:33:10;;;;;;;11.07;9.83;;;7.10;99.90;;;;;;5092829;28;20207;-58
2021/04/30 02:35:38;;;;;;;12.90;10.77;;;7.10;99.90;;;;;;5093237;28;20205;-57
2021/04/30 02:38:06;;;;;;;11.20;10.03;;;7.20;99.90;;;;;;5093139;28;20206;-57
2021/04/30 02:40:34;;;;;;;11.47;10.27;;;7.20;99.90;;;;;;5093172;28;20717;-58
2021/04/30 02:43:03;;;;;;;11.93;10.60;;;7.30;99.90;;;;;;5093417;28;20202;-58
2021/04/30 02:45:30;;;;;;;15.57;10.80;;;7.30;99.90;;;;;;5093346;28;20209;-58
2021/04/30 02:47:59;;;;;;;12.10;10.80;;;7.30;99.90;;;;;;5092611;28;20295;-57
2021/04/30 02:50:28;;;;;;;11.97;10.40;;;7.50;99.90;;;;;;5093087;28;20198;-59
2021/04/30 02:52:55;;;;;;;11.27;10.17;;;7.50;99.90;;;;;;5093154;28;20301;-54
2021/04/30 02:55:24;;;;;;;14.43;10.93;;;7.60;99.90;;;;;;5093097;28;20270;-55
2021/04/30 02:57:52;;;;;;;11.93;10.40;;;7.70;99.90;;;;;;5092972;28;20734;-56
2021/04/30 03:00:20;;;;;;;12.87;10.80;;;7.70;99.90;;;;;;5092932;28;20218;-58
2021/04/30 03:02:47;;;;;;;12.67;11.23;;;7.80;99.90;;;;;;5092824;28;20256;-56
2021/04/30 03:05:15;;;;;;;13.07;10.63;;;7.90;99.90;;;;;;5092735;28;20230;-59
2021/04/30 03:07:42;;;;;;;13.10;11.27;;;7.90;99.90;;;;;;5092992;28;20260;-58
2021/04/30 03:10:10;;;;;;;13.23;11.67;;;8.00;99.90;;;;;;5092775;28;20283;-59
2021/04/30 03:12:38;;;;;;;12.93;11.20;;;8.10;99.90;;;;;;5092982;28;20451;-58
2021/04/30 03:15:06;;;;;;;12.47;11.03;;;8.00;99.90;;;;;;5092667;28;20327;-59
2021/04/30 03:17:33;;;;;;;13.40;11.50;;;8.10;99.90;;;;;;5092770;28;20287;-57
2021/04/30 03:20:00;;;;;;;14.03;12.10;;;8.00;99.90;;;;;;5092507;28;20716;-57
2021/04/30 03:22:27;;;;;;;13.80;11.90;;;8.10;99.90;;;;;;5092660;28;20286;-59
2021/04/30 03:24:55;;;;;;;14.03;12.33;;;8.10;99.90;;;;;;5092929;28;20204;-57
2021/04/30 03:27:22;;;;;;;15.03;12.73;;;8.10;99.90;;;;;;5092948;28;20199;-57
2021/04/30 03:29:49;;;;;;;16.53;13.00;;;8.20;99.90;;;;;;5092765;28;20291;-58
2021/04/30 03:32:16;;;;;;;15.10;12.50;;;8.10;99.90;;;;;;5102871;28;20282;-58
2021/04/30 03:34:43;;;;;;;16.70;12.23;;;8.20;99.90;;;;;;5113201;28;20327;-58
2021/04/30 03:37:10;;;;;;;14.43;12.53;;;8.20;99.90;;;;;;5112617;28;20706;-58
2021/04/30 03:39:37;;;;;;;14.60;13.10;;;8.10;99.90;;;;;;5113132;28;20234;-58
2021/04/30 03:42:05;;;;;;;14.77;13.20;;;8.10;99.90;;;;;;5112809;28;20318;-56
2021/04/30 03:44:33;;;;;;;16.70;13.17;;;8.10;99.90;;;;;;5112718;28;20631;-58
2021/04/30 03:47:00;;;;;;;14.10;12.60;;;8.10;99.90;;;;;;5112935;28;20258;-57
2021/04/30 03:49:27;;;;;;;16.17;12.13;;;8.00;99.90;;;;;;5112477;28;20207;-57
2021/04/30 03:51:54;;;;;;;15.47;13.40;;;8.00;99.90;;;;;;5112570;28;20203;-59
2021/04/30 03:54:20;;;;;;;15.23;13.73;;;8.10;99.90;;;;;;5112698;28;20203;-58
2021/04/30 03:56:48;;;;;;;15.90;13.53;;;8.10;99.90;;;;;;5112620;28;20294;-58
2021/04/30 03:59:15;;;;;;;15.87;13.57;;;8.10;99.90;;;;;;5113830;28;20198;-58
2021/04/30 04:01:42;;;;;;;17.33;14.30;;;8.10;99.90;;;;;;5116454;28;20242;-58
2021/04/30 04:04:09;;;;;;;15.93;14.30;;;8.20;99.90;;;;;;5116635;28;20210;-58
2021/04/30 04:06:36;;;;;;;16.67;14.17;;;8.20;99.90;;;;;;5116650;28;20291;-56
2021/04/30 04:09:04;;;;;;;15.57;13.97;;;8.20;99.90;;;;;;5116628;28;20207;-58
2021/04/30 04:11:31;;;;;;;15.87;14.03;;;8.40;99.90;;;;;;5116548;28;20305;-58
2021/04/30 04:13:58;;;;;;;17.27;13.60;;;8.40;99.90;;;;;;5116068;28;20205;-58
2021/04/30 04:16:25;;;;;;;15.97;13.73;;;8.50;99.90;;;;;;5116449;28;20205;-57
2021/04/30 04:18:52;;;;;;;15.60;14.00;;;8.40;99.90;;;;;;5116106;28;20202;-58
2021/04/30 04:21:19;;;;;;;16.90;14.07;;;8.40;99.90;;;;;;5115855;28;20576;-59
2021/04/30 04:23:46;;;;;;;16.40;14.53;;;8.40;99.90;;;;;;5116400;28;20286;-58
2021/04/30 04:26:13;;;;;;;17.57;13.90;;;8.50;99.90;;;;;;5116241;28;20246;-58
2021/04/30 04:28:39;;;;;;;16.17;14.13;;;8.50;99.90;;;;;;5115933;28;20230;-58
2021/04/30 04:31:07;;;;;;;16.67;14.63;;;8.60;99.90;;;;;;5115454;28;20201;-60
2021/04/30 04:33:34;;;;;;;16.23;14.53;;;8.60;99.90;;;;;;5095522;28;20216;-58
2021/04/30 04:36:01;;;;;;;16.50;14.23;;;8.60;99.90;;;;;;5095190;28;20214;-58
2021/04/30 04:38:32;;;;;;;16.53;14.77;;;8.70;99.90;;;;;;5096303;28;20184;-57
2021/04/30 04:40:59;;;;;;;17.00;14.87;;;8.70;99.90;;;;;;5096631;28;20322;-59
2021/04/30 04:43:26;;;;;;;15.73;14.07;;;8.70;99.90;;;;;;5096905;28;20308;-58
2021/04/30 04:45:52;;;;;;;15.40;13.80;;;8.70;99.90;;;;;;5096258;28;20655;-58
2021/04/30 04:48:20;;;;;;;16.77;14.30;;;8.60;99.90;;;;;;5096061;28;20299;-59
2021/04/30 04:50:47;;;;;;;16.73;15.00;;;8.70;99.90;;;;;;5095687;28;20203;-58
2021/04/30 04:53:23;;;;;;;18.83;16.83;;;8.70;99.90;;;;;;5095500;28;20187;-59
2021/04/30 04:56:06;;;;;;;16.23;14.60;;;8.80;99.90;;;;;;5095354;28;20180;-60
2021/04/30 04:58:33;;;;;;;18.37;14.80;;;8.90;99.90;;;;;;5095184;28;20627;-58
2021/04/30 05:01:00;;;;;;;16.50;14.73;;;8.90;99.90;;;;;;5095321;28;20260;-58
2021/04/30 05:03:28;;;;;;;17.63;15.00;;;8.90;99.90;;;;;;5094809;28;20208;-59
2021/04/30 05:05:55;;;;;;;19.00;15.20;;;8.90;99.90;;;;;;5095280;28;20211;-58
2021/04/30 05:08:22;;;;;;;17.40;15.00;;;9.00;99.90;;;;;;5095096;28;20224;-58
2021/04/30 05:10:49;;;;;;;17.03;15.23;;;9.00;99.90;;;;;;5094508;28;20734;-57
2021/04/30 05:13:16;;;;;;;17.07;15.13;;;9.10;99.90;;;;;;5094915;28;20226;-60
2021/04/30 05:15:53;;;;;;;18.00;15.00;;;9.00;99.90;;;;;;5094846;28;20245;-58
2021/04/30 05:18:20;;;;;;;18.23;15.77;;;9.00;99.90;;;;;;5094363;28;20734;-57
2021/04/30 05:20:48;;;;;;;18.67;15.30;;;8.90;99.90;;;;;;5094406;28;20637;-59
2021/04/30 05:23:15;;;;;;;17.93;15.17;;;9.00;99.90;;;;;;5094322;28;20715;-59
2021/04/30 05:25:42;;;;;;;17.97;14.67;;;9.00;99.90;;;;;;5094369;28;20655;-59
2021/04/30 05:28:09;;;;;;;18.80;15.97;;;9.10;99.90;;;;;;5094288;28;20219;-59
2021/04/30 05:30:36;;;;;;;19.47;15.37;;;9.20;99.90;;;;;;5094666;28;20290;-59
2021/04/30 05:33:02;;;;;;;18.53;15.87;;;9.30;99.90;;;;;;5111106;28;20228;-59
2021/04/30 05:35:30;;;;;;;20.10;15.63;;;9.20;99.90;;;;;;5115068;28;20286;-58
2021/04/30 05:37:57;;;;;;;17.67;15.37;;;9.30;99.90;;;;;;5114653;27;20811;-59
2021/04/30 05:40:25;;;;;;;19.57;16.37;;;9.30;99.90;;;;;;5114595;28;20209;-58
2021/04/30 05:42:52;;;;;;;17.43;15.63;;;9.40;99.90;;;;;;5114845;28;20286;-58
2021/04/30 05:45:19;;;;;;;20.17;16.03;;;9.50;99.90;;;;;;5114830;28;20576;-59
2021/04/30 05:47:46;;;;;;;17.83;15.27;;;9.50;99.90;;;;;;5114303;28;20203;-59
2021/04/30 05:50:14;;;;;;;20.33;16.60;;;9.60;99.90;;;;;;5114524;28;20420;-58
2021/04/30 05:52:41;;;;;;;18.97;15.30;;;9.70;99.90;;;;;;5114232;28;20207;-59
2021/04/30 05:55:10;;;;;;;18.77;16.67;;;9.80;99.90;;;;;;5113621;28;20225;-58
2021/04/30 05:57:38;;;;;;;18.17;16.20;;;9.90;99.90;;;;;;5114172;28;20235;-57
2021/04/30 06:00:07;;;;;;;19.23;16.60;;;9.90;99.90;;;;;;5114233;28;20667;-59
2021/04/30 06:02:34;;;;;;;20.60;16.37;;;9.90;99.90;;;;;;5114288;28;20304;-60
2021/04/30 06:05:01;;;;;;;18.97;16.07;;;10.00;99.90;;;;;;5114561;28;20210;-60
2021/04/30 06:07:28;;;;;;;18.00;15.63;;;10.00;99.90;;;;;;5113914;28;20833;-59
2021/04/30 06:09:55;;;;;;;19.70;15.37;;;10.10;99.90;;;;;;5114383;28;20549;-59
2021/04/30 06:12:23;;;;;;;19.50;16.67;;;10.20;99.90;;;;;;5113888;28;20291;-59
2021/04/30 06:14:50;;;;;;;18.77;16.10;;;10.20;99.90;;;;;;5114070;28;20227;-58
2021/04/30 06:17:19;;;;;;;17.93;14.43;;;10.20;99.90;;;;;;5114219;28;20298;-58
2021/04/30 06:19:46;;;;;;;17.13;15.43;;;10.30;99.90;;;;;;5114050;28;20282;-59
2021/04/30 06:22:14;;;;;;;17.53;15.33;;;10.10;99.90;;;;;;5113203;28;20227;-60
2021/04/30 06:24:40;;;;;;;18.33;15.23;;;10.00;99.90;;;;;;5114060;28;20278;-59
2021/04/30 06:27:07;;;;;;;17.33;14.63;;;9.90;99.90;;;;;;5114050;28;20199;-58
2021/04/30 06:29:35;;;;;;;17.10;15.30;;;9.90;99.90;;;;;;5113676;28;20742;-59
2021/04/30 06:32:02;;;;;;;16.60;14.77;;;10.00;99.90;;;;;;5105327;28;20192;-59
2021/04/30 06:34:29;;;;;;;19.73;15.57;;;9.90;99.90;;;;;;5093174;28;20208;-59
2021/04/30 06:36:56;;;;;;;16.37;14.57;;;9.90;99.90;;;;;;5093610;28;20286;-58
2021/04/30 06:39:24;;;;;;;17.50;15.57;;;9.90;99.90;;;;;;5093075;28;20294;-56
2021/04/30 06:41:52;;;;;;;16.03;14.37;;;9.90;99.90;;;;;;5092884;28;20216;-59
2021/04/30 06:44:19;;;;;;;18.00;15.37;;;9.80;99.90;;;;;;5092976;28;20291;-57
2021/04/30 06:46:46;;;;;;;16.80;15.10;;;9.80;99.90;;;;;;5093509;28;20196;-58
2021/04/30 06:49:13;;;;;;;16.87;15.07;;;9.80;99.90;;;;;;5093436;28;20231;-57
2021/04/30 06:51:40;;;;;;;18.20;15.53;;;9.90;99.90;;;;;;5092992;28;20196;-59
2021/04/30 06:54:07;;;;;;;19.07;15.33;;;10.00;99.90;;;;;;5093161;28;20200;-59
2021/04/30 06:56:33;;;;;;;17.60;14.97;;;9.90;99.90;;;;;;5093180;28;20203;-58
2021/04/30 06:59:00;;;;;;;19.77;15.37;;;9.90;99.90;;;;;;5092757;28;20207;-58
2021/04/30 07:01:27;;;;;;;16.67;14.23;;;9.90;99.90;;;;;;5093025;28;20220;-58
2021/04/30 07:03:55;;;;;;;18.27;15.63;;;9.90;99.90;;;;;;5098963;28;20646;-56
2021/04/30 07:06:22;;;;;;;18.30;15.63;;;9.90;99.90;;;;;;5113154;28;20207;-57
2021/04/30 07:08:50;;;;;;;19.67;15.13;;;10.00;99.90;;;;;;5111535;28;20211;-59
2021/04/30 07:11:17;;;;;;;17.40;15.53;;;9.90;99.90;;;;;;5109808;28;20692;-59
2021/04/30 07:13:44;;;;;;;16.83;15.07;;;10.00;99.90;;;;;;5110525;28;20333;-60
2021/04/30 07:16:11;;;;;;;17.73;15.17;;;10.00;99.90;;;;;;5109915;28;20583;-60
2021/04/30 07:18:38;;;;;;;17.40;15.60;;;10.00;99.90;;;;;;5110328;28;20196;-60
2021/04/30 07:21:06;;;;;;;17.27;15.07;;;10.10;99.90;;;;;;5110097;28;20215;-55
2021/04/30 07:23:33;;;;;;;17.43;14.77;;;10.10;99.90;;;;;;5110022;28;20303;-54
2021/04/30 07:26:00;;;;;;;17.97;14.93;;;10.20;99.90;;;;;;5110132;28;20207;-60
2021/04/30 07:28:27;;;;;;;18.27;14.90;;;10.20;99.90;;;;;;5110135;28;20199;-60
2021/04/30 07:30:55;;;;;;;17.03;14.53;;;10.20;99.90;;;;;;5110074;28;20630;-59
2021/04/30 07:33:22;;;;;;;16.43;14.43;;;10.30;99.90;;;;;;5092323;28;20204;-60
2021/04/30 07:35:49;;;;;;;16.83;15.00;;;10.20;99.90;;;;;;5093971;28;20245;-59
2021/04/30 07:38:16;;;;;;;16.13;14.40;;;10.20;99.90;;;;;;5094184;28;20291;-54
2021/04/30 07:40:44;;;;;;;17.83;15.07;;;10.10;99.90;;;;;;5093770;28;20239;-57
2021/04/30 07:43:11;;;;;;;17.57;14.20;;;10.10;99.90;;;;;;5093467;28;20218;-61
2021/04/30 07:45:39;;;;;;;16.07;14.30;;;10.10;99.90;;;;;;5093611;28;20299;-61
2021/04/30 07:48:08;;;;;;;15.73;14.13;;;10.10;99.90;;;;;;5093772;28;20308;-58
2021/04/30 07:50:36;;;;;;;15.80;13.90;;;10.20;99.90;;;;;;5093802;28;20200;-59
2021/04/30 07:53:04;;;;;;;16.03;13.60;;;10.40;99.90;;;;;;5093253;28;20208;-61
2021/04/30 07:55:32;;;;;;;15.73;14.03;;;10.60;99.90;;;;;;5093348;28;20208;-57
2021/04/30 07:57:59;;;;;;;15.53;13.93;;;10.80;99.90;;;;;;5093414;28;20250;-55
2021/04/30 08:00:27;;;;;;;16.43;14.67;;;11.00;99.90;;;;;;5093331;28;20200;-56
2021/04/30 08:02:55;;;;;;;16.27;14.47;;;11.30;99.90;;;;;;5093157;28;20220;-56
2021/04/30 08:05:26;;;;;;;18.30;14.40;;;11.50;99.90;;;;;;5093246;28;20214;-59
2021/04/30 08:07:53;;;;;;;16.50;14.80;;;11.60;99.90;;;;;;5093101;28;20291;-59
2021/04/30 08:10:20;;;;;;;16.87;14.70;;;11.90;99.90;;;;;;5093284;28;20232;-60
2021/04/30 08:12:48;;;;;;;15.70;14.10;;;12.10;99.90;;;;;;5093316;28;20197;-59
2021/04/30 08:15:16;;;;;;;15.30;13.33;;;12.50;99.90;;;;;;5092644;28;20323;-60
2021/04/30 08:17:43;;;;;;;16.97;14.80;;;12.80;99.90;;;;;;5093026;28;20250;-58
2021/04/30 08:20:11;;;;;;;17.00;15.20;;;13.10;99.90;;;;;;5092992;28;20265;-59
2021/04/30 08:22:39;;;;;;;15.77;14.10;;;13.40;99.90;;;;;;5092509;28;20877;-58
2021/04/30 08:25:07;;;;;;;16.57;14.87;;;13.50;99.90;;;;;;5092982;28;20281;-60
2021/04/30 08:27:35;;;;;;;16.07;14.43;;;13.50;99.90;;;;;;5092882;28;20228;-59
2021/04/30 08:30:04;;;;;;;16.30;14.57;;;13.10;99.90;;;;;;5092841;28;20196;-59
2021/04/30 08:32:31;;;;;;;16.47;13.77;;;13.00;99.90;;;;;;5104730;28;20223;-59
2021/04/30 08:34:58;;;;;;;15.87;14.17;;;13.00;99.90;;;;;;5112738;28;20294;-57
2021/04/30 08:37:25;;;;;;;16.70;13.40;;;13.00;99.90;;;;;;5112971;28;20632;-59
2021/04/30 08:39:52;;;;;;;15.43;13.83;;;13.00;99.90;;;;;;5113088;28;20607;-61
2021/04/30 08:42:19;;;;;;;14.00;12.53;;;13.00;99.90;;;;;;5112850;28;20266;-59
2021/04/30 08:44:46;;;;;;;13.03;11.63;;;13.00;99.90;;;;;;5111835;28;20295;-60
2021/04/30 08:47:17;;;;;;;12.60;11.07;;;13.20;99.90;;;;;;5112882;28;20206;-60
2021/04/30 08:49:44;;;;;;;13.10;11.47;;;13.30;99.90;;;;;;5112660;28;20196;-59
2021/04/30 08:52:12;;;;;;;12.53;11.23;;;13.40;99.90;;;;;;5112504;28;20642;-60
2021/04/30 08:54:39;;;;;;;11.33;10.03;;;13.70;99.90;;;;;;5112688;28;20231;-60
2021/04/30 08:57:09;;;;;;;12.20;11.00;;;13.90;99.90;;;;;;5112809;28;20667;-56
2021/04/30 08:59:37;;;;;;;11.60;10.27;;;13.80;99.90;;;;;;5113331;28;20249;-60
2021/04/30 09:02:05;;;;;;;12.10;10.70;;;13.50;99.90;;;;;;5114090;28;20219;-59
2021/04/30 09:04:34;;;;;;;11.90;10.67;;;13.20;99.90;;;;;;5112262;28;20671;-59
2021/04/30 09:07:12;;;;;;;12.63;10.17;;;13.00;99.90;;;;;;5112313;28;20615;-59
2021/04/30 09:09:56;;;;;;;11.83;10.63;;;12.80;99.90;;;;;;5112052;28;20290;-51
2021/04/30 09:12:24;;;;;;;10.20;9.20;;;12.80;99.90;;;;;;5111984;28;20279;-56
2021/04/30 09:14:51;;;;;;;10.93;9.83;;;12.80;99.90;;;;;;5112011;28;20255;-57
2021/04/30 09:17:19;;;;;;;10.33;9.33;;;12.90;99.90;;;;;;5111997;28;20730;-58
2021/04/30 09:19:51;;;;;;;9.60;8.60;;;12.90;99.90;;;;;;5111866;28;20615;-60
2021/04/30 09:22:21;;;;;;;9.83;8.57;;;12.80;99.90;;;;;;5111939;28;20253;-55
2021/04/30 09:24:53;;;;;;;10.00;8.77;;;12.60;99.90;;;;;;5112321;28;20585;-54
2021/04/30 09:27:41;;;;;;;10.60;9.50;;;12.60;99.90;;;;;;5112008;28;20238;-58
2021/04/30 09:30:17;;;;;;;10.40;9.30;;;12.40;99.90;;;;;;5109008;28;20530;-58
2021/04/30 09:33:09;;;;;;;12.50;9.73;;;12.10;99.90;;;;;;5097583;28;20239;-59
2021/04/30 09:35:39;;;;;;;11.50;10.40;;;11.80;99.90;;;;;;5081316;28;20362;-55
2021/04/30 09:38:24;;;;;;;11.30;10.10;;;11.50;99.90;;;;;;5091292;28;20593;-55
2021/04/30 09:40:53;;;;;;;11.77;10.07;;;11.30;99.90;;;;;;5091247;28;20192;-57
2021/04/30 09:43:20;;;;;;;13.73;12.23;;;11.10;99.90;;;;;;5091203;28;20591;-54
2021/04/30 09:45:48;;;;;;;14.47;12.30;;;11.00;99.90;;;;;;5091174;28;20203;-54
2021/04/30 09:48:16;;;;;;;14.77;13.00;;;10.70;99.90;;;;;;5091201;28;20214;-56
2021/04/30 09:50:45;;;;;;;14.67;12.87;;;10.40;99.90;;;;;;5091042;28;20200;-53
2021/04/30 09:53:16;;;;;;;13.73;12.33;;;10.40;99.90;;;;;;5090768;28;20220;-55
2021/04/30 09:55:46;;;;;;;13.60;11.53;;;10.30;99.90;;;;;;5090226;28;20196;-59
2021/04/30 09:58:15;;;;;;;12.67;10.87;;;10.30;99.90;;;;;;5090413;28;20239;-58
2021/04/30 10:00:43;;;;;;;13.77;12.10;;;10.20;99.90;;;;;;5090768;28;20252;-58
2021/04/30 10:03:15;;;;;;;12.87;10.80;;;10.10;99.90;;;;;;5099561;28;20594;-58
2021/04/30 10:06:11;;;;;;;12.87;10.93;;;10.20;99.90;;;;;;5109806;28;20217;-58
2021/04/30 10:08:38;;;;;;;12.57;10.80;;;10.20;99.90;;;;;;5111031;28;20184;-58
2021/04/30 10:11:25;;;;;;;12.13;10.90;;;10.20;99.90;;;;;;5110783;28;20287;-60
2021/04/30 10:13:52;;;;;;;12.93;11.53;;;10.20;99.90;;;;;;5110434;28;20209;-59
2021/04/30 10:16:19;;;;;;;12.73;11.30;;;10.20;99.90;;;;;;5110773;28;20314;-59
2021/04/30 10:18:46;;;;;;;13.03;10.53;;;10.00;99.90;;;;;;5110428;28;20210;-59
2021/04/30 10:21:16;;;;;;;10.60;9.27;;;10.20;99.90;;;;;;5110311;28;20290;-60
2021/04/30 10:23:47;;;;;;;8.77;7.20;;;10.50;99.90;;;;;;5110810;28;20239;-60
2021/04/30 10:26:16;;;;;;;8.50;7.40;;;10.60;99.90;;;;;;5110457;28;20187;-59
2021/04/30 10:28:48;;;;;;;7.03;6.33;;;10.70;99.90;;;;;;5110201;28;20718;-59
2021/04/30 10:31:18;;;;;;;6.33;5.50;;;10.80;99.90;;;;;;5110400;28;20275;-59
2021/04/30 10:33:51;;;;;;;7.93;6.10;;;10.90;99.90;;;;;;5109942;28;20299;-58
2021/04/30 10:36:22;;;;;;;6.10;5.43;;;11.00;99.90;;;;;;5090209;28;20546;-59
2021/04/30 10:38:50;;;;;;;6.30;5.70;;;11.10;99.90;;;;;;5089882;28;20533;-60
2021/04/30 10:41:27;;;;;;;7.27;5.97;;;11.20;99.90;;;;;;5089760;28;20227;-60
2021/04/30 10:44:12;;;;;;;6.20;5.53;;;11.30;99.90;;;;;;5090260;28;20279;-60
2021/04/30 10:46:39;;;;;;;7.67;6.20;;;11.30;99.90;;;;;;5089982;28;20199;-59
2021/04/30 10:49:17;;;;;;;6.73;6.03;;;11.30;99.90;;;;;;5090091;28;20200;-59
2021/04/30 10:52:16;;;;;;;6.93;6.23;;;11.50;99.90;;;;;;5096975;28;20314;-60
2021/04/30 10:54:45;;;;;;;6.83;6.20;;;11.60;99.90;;;;;;5110159;28;20196;-59
2021/04/30 10:57:19;;;;;;;7.40;6.50;;;11.70;99.90;;;;;;5110121;28;20219;-59
2021/04/30 10:59:47;;;;;;;6.83;6.17;;;11.70;99.90;;;;;;5110088;28;20207;-59
2021/04/30 11:02:20;;;;;;;7.50;6.17;;;11.70;99.90;;;;;;5110108;28;20323;-56
2021/04/30 11:05:14;;;;;;;6.50;5.90;;;11.60;99.90;;;;;;5110344;28;20188;-57
2021/04/30 11:07:46;;;;;;;7.43;6.50;;;11.70;99.90;;;;;;5109680;28;20207;-60
2021/04/30 11:10:49;;;;;;;7.43;5.60;;;11.90;99.90;;;;;;5110082;28;20192;-61
2021/04/30 11:13:18;;;;;;;7.97;6.50;;;12.10;99.90;;;;;;5106684;28;20203;-62
2021/04/30 11:15:59;;;;;;;6.37;5.47;;;12.20;99.90;;;;;;5109967;28;20355;-57
2021/04/30 11:18:29;;;;;;;7.00;5.50;;;12.30;99.90;;;;;;5110044;28;20187;-59
2021/04/30 11:21:08;;;;;;;8.10;6.27;;;12.40;99.90;;;;;;5109781;28;20669;-59
2021/04/30 11:23:42;;;;;;;8.00;6.73;;;12.40;99.90;;;;;;5110042;28;20211;-57
2021/04/30 11:26:11;;;;;;;6.33;5.67;;;12.30;99.90;;;;;;5110482;28;20238;-56
2021/04/30 11:29:07;;;;;;;9.17;6.83;;;12.20;99.90;;;;;;5109614;28;20199;-60
2021/04/30 11:31:36;;;;;;;6.80;5.83;;;12.00;99.90;;;;;;5109763;28;20313;-59
2021/04/30 11:34:24;;;;;;;6.20;5.60;;;12.00;99.90;;;;;;5109524;28;20195;-58
2021/04/30 11:36:56;;;;;;;6.30;5.70;;;11.80;99.90;;;;;;5106465;28;20204;-60
2021/04/30 11:39:30;;;;;;;6.70;5.90;;;11.70;99.90;;;;;;5109755;28;20619;-54
2021/04/30 11:42:02;;;;;;;5.80;5.23;;;11.60;99.90;;;;;;5109780;28;20568;-56
2021/04/30 11:44:30;;;;;;;7.50;5.63;;;11.70;99.90;;;;;;5109642;28;20739;-55
2021/04/30 11:47:03;;;;;;;6.73;6.03;;;11.70;99.90;;;;;;5109688;28;20286;-54
2021/04/30 11:49:33;;;;;;;6.30;5.70;;;11.90;99.90;;;;;;5109631;28;20189;-57
2021/04/30 11:52:00;;;;;;;6.40;5.60;;;11.90;99.90;;;;;;5109286;28;20588;-57
2021/04/30 11:54:31;;;;;;;6.37;5.77;;;12.10;99.90;;;;;;5109515;28;20291;-55
2021/04/30 11:57:00;;;;;;;6.10;5.50;;;12.10;99.90;;;;;;5109772;28;20180;-56
2021/04/30 11:59:28;;;;;;;6.23;5.63;;;12.30;99.90;;;;;;5109580;28;20199;-55
2021/04/30 12:01:57;;;;;;;6.93;5.57;;;12.50;99.90;;;;;;5109355;28;20310;-54
2021/04/30 12:04:36;;;;;;;5.20;4.70;;;12.60;99.90;;;;;;5109723;28;20295;-54
2021/04/30 12:07:03;;;;;;;5.20;4.70;;;12.70;99.90;;;;;;5109545;28;20222;-53
2021/04/30 12:09:47;;;;;;;6.10;4.70;;;12.80;99.90;;;;;;5109731;28;20192;-55
2021/04/30 12:12:18;;;;;;;6.13;5.20;;;12.90;99.90;;;;;;5109652;28;20287;-51
2021/04/30 12:14:50;;;;;;;6.17;5.53;;;12.90;99.90;;;;;;5110636;28;20346;-55
2021/04/30 12:17:36;;;;;;;5.57;5.07;;;12.80;99.90;;;;;;5109643;28;20714;-57
2021/04/30 12:20:12;;;;;;;5.10;4.67;;;12.90;99.90;;;;;;5111094;28;20701;-53
2021/04/30 12:22:47;;;;;;;5.70;5.10;;;12.90;99.90;;;;;;5113054;28;20302;-54
2021/04/30 12:25:22;;;;;;;5.23;4.73;;;12.90;99.90;;;;;;5113106;28;20188;-56
2021/04/30 12:27:50;;;;;;;4.20;3.90;;;12.90;99.90;;;;;;5112771;28;20179;-54
2021/04/30 12:30:28;;;;;;;5.37;4.87;;;12.80;99.90;;;;;;5112790;28;20295;-54
2021/04/30 12:32:57;;;;;;;5.07;4.57;;;12.70;99.90;;;;;;5097114;28;20662;-54
2021/04/30 12:35:24;;;;;;;5.40;4.87;;;12.80;99.90;;;;;;5092348;28;20713;-57
2021/04/30 12:38:01;;;;;;;6.87;5.00;;;12.90;99.90;;;;;;5092277;28;20628;-53
2021/04/30 12:40:30;;;;;;;7.40;6.17;;;12.80;99.90;;;;;;5092535;28;20206;-56
2021/04/30 12:42:58;;;;;;;5.30;4.80;;;12.90;99.90;;;;;;5092178;28;20273;-55
2021/04/30 12:45:26;;;;;;;5.47;4.87;;;12.90;99.90;;;;;;5092467;28;20203;-54
2021/04/30 12:47:55;;;;;;;6.03;5.20;;;13.00;99.90;;;;;;5091996;28;20195;-60